Time;durP1;ratioP1;P1;durP2;ratioP2;P2;SDS_P1;SDS_P2;PMS_P1;PMS_P2;Temp;Humidity;BMP_temperature;BMP_pressure;BME280_temperature;BME280_humidity;BME280_pressure;Samples;Min_cycle;Max_cycle;Signal;HPM_P1;HPM_P2
2023/12/30 00:02:24;;;;;;;8.63;4.20;;;;;4.40;96038.00;;;;8298905;28;20372;-79
2023/12/30 00:06:27;;;;;;;6.53;3.93;;;;;4.40;96047.00;;;;8300296;28;20540;-80
2023/12/30 00:10:30;;;;;;;8.67;3.97;;;;;4.50;96052.00;;;;8299504;28;20201;-79
2023/12/30 00:14:35;;;;;;;7.00;3.87;;;;;4.60;96046.00;;;;8298141;28;20194;-78
2023/12/30 00:18:38;;;;;;;4.53;3.63;;;;;4.60;96050.00;;;;8299315;28;20312;-79
2023/12/30 00:22:42;;;;;;;6.53;4.17;;;;;4.70;96053.00;;;;8299105;28;20201;-79
2023/12/30 00:26:45;;;;;;;4.17;3.50;;;;;4.70;96055.00;;;;8299257;28;20623;-78
2023/12/30 00:30:51;;;;;;;8.00;3.50;;;;;4.70;96045.00;;;;8297894;28;20190;-78
2023/12/30 00:34:54;;;;;;;4.43;2.97;;;;;4.70;96040.00;;;;8298800;28;20187;-78
2023/12/30 00:38:57;;;;;;;4.67;3.20;;;;;4.60;96041.00;;;;8300116;28;20228;-78
2023/12/30 00:43:00;;;;;;;4.53;3.33;;;;;4.60;96045.00;;;;8298633;28;20601;-78
2023/12/30 00:47:06;;;;;;;7.17;3.40;;;;;4.50;96042.00;;;;8297221;28;20205;-78
2023/12/30 00:51:09;;;;;;;7.17;3.20;;;;;4.40;96052.00;;;;8298496;28;20283;-78
2023/12/30 00:55:12;;;;;;;4.73;3.07;;;;;4.30;96064.00;;;;8298766;28;20628;-78
2023/12/30 00:59:16;;;;;;;5.50;3.37;;;;;4.20;96053.00;;;;8298211;28;20217;-78
2023/12/30 01:03:20;;;;;;;9.37;3.17;;;;;4.10;96058.00;;;;8301258;28;20360;-78
2023/12/30 01:07:24;;;;;;;4.83;3.10;;;;;4.00;96062.00;;;;8305536;28;20221;-79
2023/12/30 01:11:27;;;;;;;5.57;3.03;;;;;4.00;96062.00;;;;8302448;28;20190;-78
2023/12/30 01:15:30;;;;;;;4.73;3.20;;;;;3.90;96072.00;;;;8304823;28;20270;-78
2023/12/30 01:19:35;;;;;;;8.70;3.70;;;;;3.90;96066.00;;;;8305357;28;20607;-79
2023/12/30 01:23:38;;;;;;;6.87;3.37;;;;;3.80;96056.00;;;;8304943;28;20645;-79
2023/12/30 01:27:41;;;;;;;4.10;3.50;;;;;3.70;96060.00;;;;8304257;28;20527;-79
2023/12/30 01:31:44;;;;;;;5.70;4.03;;;;;3.70;96068.00;;;;8303731;28;20198;-79
2023/12/30 01:35:49;;;;;;;4.03;3.23;;;;;3.70;96068.00;;;;8303588;28;20198;-77
2023/12/30 01:39:53;;;;;;;4.17;3.43;;;;;3.70;96062.00;;;;8303246;28;20523;-77
2023/12/30 01:43:56;;;;;;;7.53;4.03;;;;;3.70;96069.00;;;;8302776;28;20205;-77
2023/12/30 01:48:01;;;;;;;6.03;3.60;;;;;3.80;96070.00;;;;8304470;28;20643;-77
2023/12/30 01:52:08;;;;;;;5.40;3.83;;;;;4.00;96078.00;;;;8302995;28;20187;-77
2023/12/30 01:56:12;;;;;;;9.63;4.87;;;;;4.30;96068.00;;;;8303548;28;20582;-77
2023/12/30 02:00:20;;;;;;;4.27;3.40;;;;;4.40;96076.00;;;;8303116;28;20247;-77
2023/12/30 02:04:31;;;;;;;4.97;3.17;;;;;4.60;96083.00;;;;8302646;28;20229;-77
2023/12/30 02:08:36;;;;;;;3.20;2.90;;;;;4.80;96078.00;;;;8303568;28;20532;-77
2023/12/30 02:12:39;;;;;;;3.90;3.03;;;;;5.00;96093.00;;;;8302403;28;20282;-77
2023/12/30 02:16:42;;;;;;;4.13;2.80;;;;;5.10;96097.00;;;;8303435;28;20611;-77
2023/12/30 02:20:45;;;;;;;3.23;2.87;;;;;5.10;96100.00;;;;8302430;28;20281;-77
2023/12/30 02:24:51;;;;;;;4.00;2.83;;;;;5.30;96091.00;;;;8301410;28;20240;-77
2023/12/30 02:28:54;;;;;;;4.17;2.60;;;;;5.50;96091.00;;;;8302716;28;20210;-77
2023/12/30 02:32:58;;;;;;;4.03;2.70;;;;;5.70;96086.00;;;;8302617;28;20202;-77
2023/12/30 02:37:01;;;;;;;5.67;3.00;;;;;5.90;96090.00;;;;8301301;28;20221;-77
2023/12/30 02:41:06;;;;;;;4.37;2.63;;;;;6.00;96089.00;;;;8301058;28;20373;-77
2023/12/30 02:45:10;;;;;;;4.30;2.63;;;;;6.10;96098.00;;;;8301577;28;20651;-78
2023/12/30 02:49:13;;;;;;;3.87;2.70;;;;;6.20;96088.00;;;;8301695;28;20650;-78
2023/12/30 02:53:16;;;;;;;3.87;2.80;;;;;6.30;96086.00;;;;8300587;28;20194;-78
2023/12/30 02:57:23;;;;;;;4.23;2.60;;;;;6.40;96092.00;;;;8300605;28;20264;-78
2023/12/30 03:01:27;;;;;;;2.87;2.47;;;;;6.40;96095.00;;;;8329877;22;20260;-81
2023/12/30 03:05:32;;;;;;;3.23;2.50;;;;;6.60;96102.00;;;;8299721;28;20204;-84
2023/12/30 03:09:35;;;;;;;5.10;2.90;;;;;6.70;96110.00;;;;8297881;28;20281;-84
2023/12/30 03:13:40;;;;;;;4.13;2.43;;;;;6.80;96104.00;;;;8300446;28;20206;-84
2023/12/30 03:17:43;;;;;;;2.17;2.08;;;;;7.00;96102.00;;;;8297618;28;20299;-82
2023/12/30 03:21:47;;;;;;;2.58;2.38;;;;;7.20;96110.00;;;;8299610;28;20236;-80
2023/12/30 03:25:51;;;;;;;3.75;2.38;;;;;7.40;96119.00;;;;8298209;28;20205;-84
2023/12/30 03:29:55;;;;;;;2.25;2.05;;;;;7.50;96112.00;;;;8295807;28;20336;-82
2023/12/30 03:33:58;;;;;;;2.90;2.38;;;;;7.60;96121.00;;;;8299013;28;20205;-79
2023/12/30 03:38:02;;;;;;;2.67;2.17;;;;;7.70;96127.00;;;;8299553;28;20708;-82
2023/12/30 03:42:05;;;;;;;3.20;2.20;;;;;7.80;96126.00;;;;8299533;28;20201;-84
2023/12/30 03:46:11;;;;;;;2.97;2.38;;;;;7.90;96119.00;;;;8299174;28;20213;-85
2023/12/30 03:50:14;;;;;;;2.45;2.25;;;;;7.90;96121.00;;;;8298471;28;20206;-81
2023/12/30 03:54:17;;;;;;;2.83;1.90;;;;;8.00;96122.00;;;;8299618;28;20288;-81
2023/12/30 03:58:20;;;;;;;2.67;1.95;;;;;8.10;96124.00;;;;8298653;28;20336;-80
2023/12/30 04:02:25;;;;;;;2.47;2.00;;;;;8.10;96131.00;;;;8281835;28;20224;-81
2023/12/30 04:06:28;;;;;;;2.00;1.90;;;;;8.10;96129.00;;;;8266831;28;20199;-81
2023/12/30 04:10:31;;;;;;;2.08;1.88;;;;;8.10;96140.00;;;;8265522;28;20201;-83
2023/12/30 04:14:35;;;;;;;4.13;2.17;;;;;8.10;96132.00;;;;8265177;28;20650;-81
2023/12/30 04:18:39;;;;;;;4.85;1.98;;;;;8.20;96128.00;;;;8264452;28;20230;-80
2023/12/30 04:22:42;;;;;;;2.45;2.25;;;;;8.30;96131.00;;;;8266918;28;21689;-81
2023/12/30 04:26:46;;;;;;;2.83;2.17;;;;;8.30;96125.00;;;;8264001;28;20205;-81
2023/12/30 04:30:49;;;;;;;2.55;2.35;;;;;8.40;96132.00;;;;8255615;28;20232;-78
2023/12/30 04:34:54;;;;;;;3.22;2.33;;;;;8.40;96126.00;;;;8264650;28;20662;-78
2023/12/30 04:38:57;;;;;;;2.17;2.08;;;;;8.50;96127.00;;;;8271147;28;20283;-78
2023/12/30 04:43:00;;;;;;;4.93;2.45;;;;;8.50;96122.00;;;;8270914;28;20218;-79
2023/12/30 04:47:04;;;;;;;2.38;2.28;;;;;8.50;96125.00;;;;8270287;28;20190;-77
2023/12/30 04:51:08;;;;;;;4.82;2.70;;;;;8.50;96130.00;;;;8269409;28;20206;-76
2023/12/30 04:55:12;;;;;;;2.70;2.50;;;;;8.40;96129.00;;;;8271510;28;20198;-76
2023/12/30 04:59:15;;;;;;;3.17;2.88;;;;;8.30;96130.00;;;;8270284;28;20234;-75
2023/12/30 05:03:18;;;;;;;2.78;2.58;;;;;8.10;96142.00;;;;8270034;28;20982;-78
2023/12/30 05:07:23;;;;;;;2.90;2.60;;;;;8.00;96140.00;;;;8268028;28;20194;-77
2023/12/30 05:11:26;;;;;;;3.40;3.10;;;;;7.90;96152.00;;;;8271811;28;20194;-74
2023/12/30 05:15:29;;;;;;;3.17;2.80;;;;;7.90;96155.00;;;;8272844;28;20332;-78
2023/12/30 05:19:32;;;;;;;3.28;2.38;;;;;7.90;96172.00;;;;8281415;28;20222;-79
2023/12/30 05:23:37;;;;;;;5.05;2.83;;;;;8.00;96168.00;;;;8280776;28;20253;-76
2023/12/30 05:27:40;;;;;;;3.25;2.67;;;;;8.10;96171.00;;;;8281040;28;20213;-79
2023/12/30 05:31:43;;;;;;;2.70;2.50;;;;;8.10;96171.00;;;;8278073;28;20205;-76
2023/12/30 05:35:48;;;;;;;2.63;2.40;;;;;8.20;96185.00;;;;8278292;28;20328;-77
2023/12/30 05:39:54;;;;;;;3.80;2.53;;;;;8.20;96189.00;;;;8274313;28;20368;-78
2023/12/30 05:43:58;;;;;;;5.55;2.60;;;;;8.20;96200.00;;;;8271107;28;20194;-75
2023/12/30 05:48:04;;;;;;;2.70;2.50;;;;;8.20;96191.00;;;;8277960;28;20571;-80
2023/12/30 05:52:12;;;;;;;2.30;2.20;;;;;8.20;96205.00;;;;8275515;28;20214;-79
2023/12/30 05:56:23;;;;;;;4.90;2.78;;;;;8.20;96205.00;;;;8273296;28;20293;-77
2023/12/30 06:00:26;;;;;;;2.55;2.30;;;;;8.00;96202.00;;;;8277764;28;21201;-76
2023/12/30 06:04:29;;;;;;;2.83;2.53;;;;;7.80;96202.00;;;;8279868;28;20232;-75
2023/12/30 06:08:33;;;;;;;6.43;2.20;;;;;7.60;96212.00;;;;8277848;28;20236;-79
2023/12/30 06:12:37;;;;;;;2.70;2.50;;;;;7.50;96228.00;;;;8276421;28;20294;-78
2023/12/30 06:16:40;;;;;;;8.45;3.50;;;;;7.50;96227.00;;;;8277704;28;20948;-77
2023/12/30 06:20:45;;;;;;;2.58;2.17;;;;;7.60;96219.00;;;;8281317;28;20318;-76
2023/12/30 06:24:49;;;;;;;3.15;2.00;;;;;7.70;96218.00;;;;8281377;28;20264;-78
2023/12/30 06:28:53;;;;;;;3.13;2.00;;;;;7.60;96233.00;;;;8280089;28;20665;-77
2023/12/30 06:32:58;;;;;;;3.08;2.42;;;;;7.60;96228.00;;;;8275942;28;20684;-76
2023/12/30 06:37:02;;;;;;;2.50;2.30;;;;;7.50;96236.00;;;;8279268;28;20206;-80
2023/12/30 06:41:07;;;;;;;2.63;1.88;;;;;7.50;96234.00;;;;8277477;28;20241;-78
2023/12/30 06:45:12;;;;;;;4.65;2.50;;;;;7.40;96236.00;;;;8278187;28;20217;-76
2023/12/30 06:49:16;;;;;;;4.32;2.30;;;;;7.40;96233.00;;;;8273599;28;20202;-76
2023/12/30 06:53:19;;;;;;;2.65;2.10;;;;;7.40;96228.00;;;;8277006;28;20201;-77
2023/12/30 06:57:25;;;;;;;1.90;1.80;;;;;7.20;96250.00;;;;8277364;28;20294;-77
2023/12/30 07:01:29;;;;;;;2.38;2.17;;;;;7.20;96250.00;;;;8275275;28;20251;-77
2023/12/30 07:05:35;;;;;;;4.70;2.33;;;;;7.20;96261.00;;;;8277154;28;20244;-75
2023/12/30 07:09:40;;;;;;;2.95;2.45;;;;;7.20;96260.00;;;;8277805;28;20206;-78
2023/12/30 07:13:43;;;;;;;3.57;2.60;;;;;7.30;96269.00;;;;8275364;28;20639;-79
2023/12/30 07:17:49;;;;;;;4.68;2.40;;;;;7.40;96267.00;;;;8270477;28;21256;-75
2023/12/30 07:21:54;;;;;;;4.60;2.53;;;;;7.50;96279.00;;;;8275157;28;20194;-77
2023/12/30 07:25:58;;;;;;;2.47;2.28;;;;;7.60;96274.00;;;;8278257;28;20820;-77
2023/12/30 07:30:01;;;;;;;3.72;2.35;;;;;7.70;96273.00;;;;8279114;28;20797;-79
2023/12/30 07:34:06;;;;;;;3.30;2.45;;;;;7.80;96282.00;;;;8275376;28;20308;-79
2023/12/30 07:38:09;;;;;;;3.38;2.70;;;;;7.90;96291.00;;;;8269260;28;20198;-81
2023/12/30 07:42:13;;;;;;;2.35;2.15;;;;;8.00;96294.00;;;;8274164;28;20605;-79
2023/12/30 07:46:17;;;;;;;5.70;1.98;;;;;8.10;96292.00;;;;8272641;28;20201;-81
2023/12/30 07:50:22;;;;;;;4.40;2.40;;;;;8.20;96306.00;;;;8275825;28;20242;-82
2023/12/30 07:54:25;;;;;;;3.50;1.92;;;;;8.20;96304.00;;;;8276800;28;20233;-80
2023/12/30 07:58:28;;;;;;;3.03;2.25;;;;;8.30;96304.00;;;;8276154;28;20691;-79
2023/12/30 08:02:32;;;;;;;3.47;2.08;;;;;8.40;96312.00;;;;8275773;28;20234;-80
2023/12/30 08:06:37;;;;;;;2.45;2.15;;;;;8.40;96312.00;;;;8275985;28;20978;-79
2023/12/30 08:10:40;;;;;;;2.53;2.10;;;;;8.50;96309.00;;;;8275184;28;20299;-79
2023/12/30 08:14:43;;;;;;;2.10;1.95;;;;;8.60;96321.00;;;;8273849;28;20203;-79
2023/12/30 08:18:48;;;;;;;3.60;1.95;;;;;8.60;96323.00;;;;8269553;28;20288;-78
2023/12/30 08:22:54;;;;;;;1.85;1.75;;;;;8.60;96313.00;;;;8274213;28;20256;-81
2023/12/30 08:26:57;;;;;;;5.10;2.75;;;;;8.70;96327.00;;;;8277531;28;20728;-81
2023/12/30 08:31:02;;;;;;;2.08;1.98;;;;;8.80;96324.00;;;;8272367;28;20190;-80
2023/12/30 08:35:07;;;;;;;5.03;1.75;;;;;8.80;96332.00;;;;8274950;28;20201;-84
2023/12/30 08:39:12;;;;;;;7.15;3.22;;;;;8.90;96321.00;;;;8271966;28;20226;-77
2023/12/30 08:43:15;;;;;;;14.48;3.95;;;;;9.00;96317.00;;;;8274167;28;20205;-75
2023/12/30 08:47:19;;;;;;;4.15;2.70;;;;;9.10;96331.00;;;;8272889;28;20220;-76
2023/12/30 08:51:23;;;;;;;2.10;1.90;;;;;9.20;96341.00;;;;8270207;28;20206;-75
2023/12/30 08:55:27;;;;;;;2.10;1.90;;;;;9.50;96348.00;;;;8273019;28;20653;-76
2023/12/30 08:59:31;;;;;;;1.83;1.70;;;;;9.80;96329.00;;;;8269586;28;22841;-76
2023/12/30 09:03:34;;;;;;;2.30;1.88;;;;;10.10;96341.00;;;;8266876;28;20955;-75
2023/12/30 09:07:39;;;;;;;1.95;1.30;;;;;10.20;96328.00;;;;8270068;28;20206;-77
2023/12/30 09:11:45;;;;;;;3.80;1.40;;;;;10.30;96347.00;;;;8270739;28;20574;-76
2023/12/30 09:15:48;;;;;;;1.40;1.40;;;;;10.30;96349.00;;;;8268836;28;20289;-78
2023/12/30 09:19:51;;;;;;;3.97;2.35;;;;;10.30;96355.00;;;;8270935;28;20284;-76
2023/12/30 09:23:54;;;;;;;1.60;1.50;;;;;10.20;96354.00;;;;8274931;28;20208;-74
2023/12/30 09:27:59;;;;;;;2.00;1.50;;;;;10.20;96379.00;;;;8278174;28;20908;-76
2023/12/30 09:32:03;;;;;;;2.22;1.60;;;;;10.20;96369.00;;;;8278472;28;20697;-76
2023/12/30 09:36:07;;;;;;;1.65;1.55;;;;;10.20;96371.00;;;;8280401;28;20196;-75
2023/12/30 09:40:11;;;;;;;2.63;1.60;;;;;10.30;96373.00;;;;8272600;28;20309;-77
2023/12/30 09:44:16;;;;;;;3.60;1.70;;;;;10.30;96368.00;;;;8275971;28;20206;-77
2023/12/30 09:48:21;;;;;;;1.60;1.50;;;;;10.30;96365.00;;;;8273633;28;20216;-76
2023/12/30 09:52:25;;;;;;;3.58;1.52;;;;;10.30;96355.00;;;;8274654;28;20190;-75
2023/12/30 09:56:28;;;;;;;2.50;1.42;;;;;10.40;96359.00;;;;8278927;28;20244;-74
2023/12/30 10:00:35;;;;;;;3.83;1.50;;;;;10.40;96345.00;;;;8271786;28;20240;-78
2023/12/30 10:04:38;;;;;;;3.30;1.70;;;;;10.40;96343.00;;;;8276126;28;20315;-75
2023/12/30 10:08:42;;;;;;;3.33;1.60;;;;;10.30;96340.00;;;;8274268;28;20236;-79
2023/12/30 10:12:46;;;;;;;3.15;1.40;;;;;10.40;96339.00;;;;8274382;28;20303;-76
2023/12/30 10:16:50;;;;;;;2.55;1.50;;;;;10.40;96338.00;;;;8270729;28;20264;-77
2023/12/30 10:20:53;;;;;;;4.22;1.95;;;;;10.40;96336.00;;;;8277993;28;20234;-80
2023/12/30 10:24:57;;;;;;;4.57;3.00;;;;;10.40;96337.00;;;;8279417;28;20211;-77
2023/12/30 10:29:00;;;;;;;1.80;1.70;;;;;10.50;96331.00;;;;8280439;28;20206;-79
2023/12/30 10:33:10;;;;;;;1.60;1.50;;;;;10.70;96325.00;;;;8274924;28;20202;-78
2023/12/30 10:37:14;;;;;;;2.97;1.58;;;;;10.80;96322.00;;;;8271126;28;20826;-77
2023/12/30 10:41:17;;;;;;;2.63;1.75;;;;;11.00;96328.00;;;;8275499;28;20237;-76
2023/12/30 10:45:20;;;;;;;3.95;1.85;;;;;11.00;96330.00;;;;8278350;28;20198;-76
2023/12/30 10:49:26;;;;;;;2.35;1.80;;;;;11.00;96325.00;;;;8278255;28;20198;-78
2023/12/30 10:53:32;;;;;;;1.83;1.73;;;;;10.90;96335.00;;;;8279789;28;20833;-74
2023/12/30 10:57:37;;;;;;;3.17;2.15;;;;;10.80;96331.00;;;;8280074;28;20289;-75
2023/12/30 11:01:41;;;;;;;1.73;1.63;;;;;10.80;96328.00;;;;8281169;28;20237;-78
2023/12/30 11:05:52;;;;;;;3.90;1.90;;;;;10.80;96334.00;;;;8277190;28;20248;-77
2023/12/30 11:09:55;;;;;;;4.15;1.92;;;;;10.80;96332.00;;;;8277424;28;20205;-76
2023/12/30 11:13:58;;;;;;;3.67;1.90;;;;;10.70;96332.00;;;;8278031;28;20205;-75
2023/12/30 11:18:02;;;;;;;3.50;1.90;;;;;10.50;96329.00;;;;8278474;28;20210;-76
2023/12/30 11:22:07;;;;;;;3.30;1.75;;;;;10.30;96335.00;;;;8280511;28;20234;-79
2023/12/30 11:26:14;;;;;;;3.30;1.70;;;;;10.00;96336.00;;;;8281382;28;20726;-75
2023/12/30 11:30:17;;;;;;;3.08;1.80;;;;;9.80;96344.00;;;;8280067;28;20586;-73
2023/12/30 11:34:21;;;;;;;2.15;2.00;;;;;9.60;96333.00;;;;8276762;28;20205;-79
2023/12/30 11:38:30;;;;;;;7.10;1.90;;;;;9.40;96336.00;;;;8276130;28;20240;-76
2023/12/30 11:42:34;;;;;;;2.80;2.30;;;;;9.30;96334.00;;;;8281297;28;20227;-79
2023/12/30 11:46:50;;;;;;;4.50;2.40;;;;;9.20;96337.00;;;;8278271;28;20225;-74
2023/12/30 11:50:54;;;;;;;2.47;2.20;;;;;9.20;96333.00;;;;8279716;28;20190;-79
2023/12/30 11:54:59;;;;;;;5.28;2.30;;;;;9.20;96336.00;;;;8279790;28;20225;-78
2023/12/30 11:59:02;;;;;;;5.32;2.63;;;;;9.30;96341.00;;;;8277791;28;20213;-77
2023/12/30 12:03:06;;;;;;;2.15;2.03;;;;;9.40;96318.00;;;;8278730;28;20790;-80
2023/12/30 12:07:10;;;;;;;2.05;1.88;;;;;9.50;96326.00;;;;8276929;28;20928;-77
2023/12/30 12:11:17;;;;;;;4.78;2.20;;;;;9.60;96326.00;;;;8277868;28;20207;-78
2023/12/30 12:15:20;;;;;;;4.35;2.63;;;;;9.70;96323.00;;;;8276370;28;20368;-76
2023/12/30 12:19:26;;;;;;;2.20;1.85;;;;;9.60;96317.00;;;;8278566;28;20198;-78
2023/12/30 12:23:30;;;;;;;4.00;1.83;;;;;9.70;96312.00;;;;8278990;28;20258;-76
2023/12/30 12:27:34;;;;;;;3.08;2.00;;;;;9.70;96315.00;;;;8280314;28;20999;-75
2023/12/30 12:31:37;;;;;;;2.05;1.92;;;;;9.80;96307.00;;;;8279212;28;20195;-74
2023/12/30 12:35:41;;;;;;;2.58;1.40;;;;;9.80;96309.00;;;;8280767;28;20202;-77
2023/12/30 12:39:44;;;;;;;3.05;1.98;;;;;9.80;96300.00;;;;8278354;28;20208;-75
2023/12/30 12:43:49;;;;;;;2.78;1.67;;;;;9.80;96306.00;;;;8279724;28;21090;-75
2023/12/30 12:47:54;;;;;;;1.60;1.50;;;;;9.90;96297.00;;;;8270790;28;20201;-74
2023/12/30 12:51:59;;;;;;;1.80;1.70;;;;;10.00;96288.00;;;;8270100;28;21082;-74
2023/12/30 12:56:04;;;;;;;2.78;1.77;;;;;10.10;96285.00;;;;8275302;28;20276;-77
2023/12/30 13:00:10;;;;;;;1.98;1.80;;;;;10.20;96281.00;;;;8277172;28;20569;-73
2023/12/30 13:04:14;;;;;;;2.05;1.85;;;;;10.30;96285.00;;;;8277892;28;20225;-74
2023/12/30 13:08:17;;;;;;;2.85;1.45;;;;;10.30;96283.00;;;;8277105;28;20292;-74
2023/12/30 13:12:21;;;;;;;2.70;1.73;;;;;10.30;96276.00;;;;8279215;28;20256;-80
2023/12/30 13:16:26;;;;;;;3.38;1.67;;;;;10.40;96274.00;;;;8277812;28;20201;-77
2023/12/30 13:20:29;;;;;;;2.35;1.80;;;;;10.40;96283.00;;;;8279846;28;20226;-77
2023/12/30 13:24:33;;;;;;;2.35;1.50;;;;;10.50;96293.00;;;;8285260;28;20232;-78
2023/12/30 13:28:36;;;;;;;3.90;1.88;;;;;10.50;96283.00;;;;8281779;28;20719;-76
2023/12/30 13:32:42;;;;;;;2.70;1.70;;;;;10.60;96285.00;;;;8278542;28;20261;-76
2023/12/30 13:36:48;;;;;;;2.85;1.73;;;;;10.60;96278.00;;;;8279338;28;20198;-74
2023/12/30 13:40:58;;;;;;;1.30;1.30;;;;;10.50;96281.00;;;;8304253;28;20263;-74
2023/12/30 13:45:03;;;;;;;3.03;1.40;;;;;10.40;96286.00;;;;8303854;28;20267;-74
2023/12/30 13:53:29;;;;;;;1.40;1.17;;;;;10.20;96284.00;;;;8302557;28;20177;-74
2023/12/30 13:57:32;;;;;;;4.97;1.70;;;;;10.20;96284.00;;;;8302485;28;20209;-74
2023/12/30 14:01:36;;;;;;;2.88;1.58;;;;;10.20;96281.00;;;;8300455;28;20312;-74
2023/12/30 14:05:44;;;;;;;1.67;1.45;;;;;10.10;96285.00;;;;8303959;28;20233;-74
2023/12/30 14:09:54;;;;;;;8.38;1.75;;;;;10.20;96288.00;;;;8301699;28;20190;-74
2023/12/30 14:13:58;;;;;;;2.10;1.27;;;;;10.20;96287.00;;;;8302780;28;20187;-73
2023/12/30 14:18:07;;;;;;;2.45;1.50;;;;;10.20;96286.00;;;;8303137;28;20189;-73
2023/12/30 14:22:12;;;;;;;1.40;1.30;;;;;10.10;96277.00;;;;8299903;28;20226;-73
2023/12/30 14:26:15;;;;;;;4.75;1.58;;;;;10.00;96269.00;;;;8302397;28;20207;-72
2023/12/30 14:30:18;;;;;;;2.25;1.40;;;;;10.00;96274.00;;;;8300858;28;20194;-72
2023/12/30 14:34:21;;;;;;;2.90;1.40;;;;;9.90;96272.00;;;;8303098;28;20202;-72
2023/12/30 14:38:26;;;;;;;3.53;1.67;;;;;9.90;96268.00;;;;8302569;28;20193;-73
2023/12/30 14:42:29;;;;;;;3.92;1.90;;;;;9.80;96276.00;;;;8301304;28;20260;-72
2023/12/30 14:46:32;;;;;;;4.65;1.90;;;;;9.80;96272.00;;;;8301152;28;20202;-72
2023/12/30 14:50:35;;;;;;;3.30;1.83;;;;;9.90;96276.00;;;;8300087;28;20201;-72
2023/12/30 14:54:40;;;;;;;4.07;2.38;;;;;9.90;96265.00;;;;8300839;28;20236;-72
2023/12/30 14:58:44;;;;;;;5.00;2.83;;;;;9.90;96278.00;;;;8302302;28;20223;-72
2023/12/30 15:02:47;;;;;;;4.25;2.90;;;;;9.90;96278.00;;;;8299639;28;20235;-73
2023/12/30 15:06:50;;;;;;;5.95;3.25;;;;;9.80;96276.00;;;;8300526;28;20210;-71
2023/12/30 15:10:55;;;;;;;4.35;2.97;;;;;9.60;96283.00;;;;8300418;28;20650;-72
2023/12/30 15:14:59;;;;;;;7.18;3.15;;;;;9.30;96271.00;;;;8300184;28;20179;-73
2023/12/30 15:19:02;;;;;;;5.45;3.05;;;;;9.10;96273.00;;;;8300365;28;20233;-73
2023/12/30 15:23:05;;;;;;;8.20;3.35;;;;;8.90;96267.00;;;;8299214;28;20225;-73
2023/12/30 15:27:10;;;;;;;5.07;2.80;;;;;8.60;96257.00;;;;8298555;28;20194;-74
2023/12/30 15:31:13;;;;;;;7.72;5.20;;;;;8.50;96262.00;;;;8299061;28;20272;-74
2023/12/30 15:35:17;;;;;;;12.48;8.63;;;;;8.30;96256.00;;;;8298601;28;20520;-73
2023/12/30 15:39:20;;;;;;;8.80;3.90;;;;;8.10;96270.00;;;;8300587;28;20210;-74
2023/12/30 15:43:25;;;;;;;6.85;3.85;;;;;7.90;96268.00;;;;8298988;28;20225;-74
2023/12/30 15:47:28;;;;;;;4.95;3.22;;;;;7.70;96270.00;;;;8299177;28;20197;-74
2023/12/30 15:51:32;;;;;;;3.83;2.80;;;;;7.30;96269.00;;;;8300465;28;20267;-74
2023/12/30 15:55:35;;;;;;;4.07;2.80;;;;;7.00;96266.00;;;;8299322;28;20259;-75
2023/12/30 15:59:40;;;;;;;4.97;2.90;;;;;6.70;96277.00;;;;8299917;28;20622;-75
2023/12/30 16:03:43;;;;;;;4.10;2.97;;;;;6.50;96273.00;;;;8300877;28;20665;-74
2023/12/30 16:07:46;;;;;;;4.07;2.87;;;;;6.20;96273.00;;;;8299156;28;20543;-75
2023/12/30 16:11:50;;;;;;;9.00;3.60;;;;;6.00;96272.00;;;;8298753;28;20283;-74
2023/12/30 16:16:00;;;;;;;5.83;3.17;;;;;6.00;96274.00;;;;8297490;28;20194;-75
2023/12/30 16:20:04;;;;;;;13.23;3.73;;;;;6.00;96271.00;;;;8299699;28;20632;-75
2023/12/30 16:24:14;;;;;;;5.80;3.53;;;;;5.90;96272.00;;;;8298936;28;20217;-75
2023/12/30 16:28:17;;;;;;;6.83;4.10;;;;;5.70;96263.00;;;;8298336;28;20182;-75
2023/12/30 16:32:22;;;;;;;3.67;2.87;;;;;5.50;96267.00;;;;8298861;28;20209;-74
2023/12/30 16:36:25;;;;;;;9.57;5.10;;;;;5.30;96262.00;;;;8305876;28;20293;-74
2023/12/30 16:40:30;;;;;;;9.03;4.80;;;;;5.30;96261.00;;;;8305682;28;20193;-74
2023/12/30 16:44:33;;;;;;;7.43;4.10;;;;;5.20;96263.00;;;;8303985;28;20218;-75
2023/12/30 16:48:38;;;;;;;11.90;4.70;;;;;5.20;96270.00;;;;8305493;28;20622;-74
2023/12/30 16:52:42;;;;;;;6.33;3.40;;;;;5.00;96270.00;;;;8305409;28;20654;-75
2023/12/30 16:56:46;;;;;;;4.83;2.83;;;;;4.90;96278.00;;;;8305012;28;20649;-75
2023/12/30 17:00:51;;;;;;;7.37;2.83;;;;;4.80;96273.00;;;;8305037;28;20229;-75
2023/12/30 17:04:56;;;;;;;6.97;3.80;;;;;4.60;96263.00;;;;8304983;28;20290;-74
2023/12/30 17:09:03;;;;;;;7.57;4.27;;;;;4.60;96265.00;;;;8304867;28;20198;-75
2023/12/30 17:13:06;;;;;;;7.77;4.63;;;;;4.40;96272.00;;;;8304397;28;20182;-75
2023/12/30 17:17:09;;;;;;;7.50;5.03;;;;;4.40;96263.00;;;;8304097;28;20194;-75
2023/12/30 17:21:14;;;;;;;13.50;4.90;;;;;4.40;96265.00;;;;8303964;28;20272;-74
2023/12/30 17:25:17;;;;;;;8.17;4.70;;;;;4.30;96268.00;;;;8303583;28;20309;-74
2023/12/30 17:29:21;;;;;;;14.20;6.07;;;;;4.20;96266.00;;;;8304002;28;20236;-75
2023/12/30 17:33:29;;;;;;;19.60;9.53;;;;;4.10;96267.00;;;;8305433;28;20222;-74
2023/12/30 17:37:35;;;;;;;11.97;5.60;;;;;4.10;96265.00;;;;8303661;28;20198;-74
2023/12/30 17:41:38;;;;;;;15.60;5.87;;;;;4.00;96258.00;;;;8303520;28;20217;-74
2023/12/30 17:45:42;;;;;;;19.00;8.17;;;;;3.90;96261.00;;;;8302380;28;20229;-74
2023/12/30 17:49:45;;;;;;;21.63;10.10;;;;;3.90;96255.00;;;;8304169;28;20202;-74
2023/12/30 17:53:50;;;;;;;12.53;5.90;;;;;3.80;96244.00;;;;8302969;28;20206;-74
2023/12/30 17:57:53;;;;;;;26.60;12.07;;;;;3.70;96241.00;;;;8304587;28;20186;-74
2023/12/30 18:01:57;;;;;;;18.90;10.23;;;;;3.80;96248.00;;;;8301708;28;20222;-74
2023/12/30 18:06:00;;;;;;;23.57;11.17;;;;;3.80;96253.00;;;;8302606;28;20198;-73
2023/12/30 18:10:06;;;;;;;22.30;9.70;;;;;3.80;96238.00;;;;8303306;28;20232;-74
2023/12/30 18:14:11;;;;;;;19.90;9.97;;;;;3.70;96248.00;;;;8302396;28;20209;-74
2023/12/30 18:18:15;;;;;;;15.37;8.30;;;;;3.50;96249.00;;;;8302985;28;20190;-75
2023/12/30 18:22:18;;;;;;;18.27;10.00;;;;;3.40;96239.00;;;;8302419;28;20230;-75
2023/12/30 18:31:45;;;;;;;22.73;10.30;;;;;3.20;96245.00;;;;8300866;28;20197;-75
2023/12/30 18:35:48;;;;;;;22.93;10.30;;;;;3.10;96245.00;;;;8302532;28;20592;-75
2023/12/30 18:39:51;;;;;;;24.63;11.10;;;;;3.00;96253.00;;;;8301373;28;20202;-75
2023/12/30 18:43:55;;;;;;;23.57;10.50;;;;;3.00;96248.00;;;;8301867;28;20229;-75
2023/12/30 18:47:59;;;;;;;24.57;10.43;;;;;2.90;96249.00;;;;8301249;28;20237;-75
2023/12/30 18:52:02;;;;;;;15.23;7.53;;;;;2.80;96247.00;;;;8300051;28;20198;-75
2023/12/30 18:56:06;;;;;;;11.07;6.83;;;;;2.80;96239.00;;;;8301316;28;20244;-75
2023/12/30 19:00:14;;;;;;;15.60;7.73;;;;;2.70;96227.00;;;;8301422;28;20644;-75
2023/12/30 19:04:19;;;;;;;19.33;9.23;;;;;2.70;96229.00;;;;8302648;28;20236;-75
2023/12/30 19:08:23;;;;;;;11.07;6.43;;;;;2.80;96216.00;;;;8302116;28;20591;-75
2023/12/30 19:12:26;;;;;;;12.70;5.60;;;;;2.70;96208.00;;;;8301027;28;20654;-76
2023/12/30 19:16:31;;;;;;;21.70;9.60;;;;;2.70;96208.00;;;;8301084;28;20185;-76
2023/12/30 19:20:36;;;;;;;11.70;6.57;;;;;2.70;96211.00;;;;8300590;28;20631;-77
2023/12/30 19:24:39;;;;;;;11.40;6.20;;;;;2.60;96217.00;;;;8300743;28;20240;-77
2023/12/30 19:28:43;;;;;;;8.90;5.30;;;;;2.60;96209.00;;;;8300474;28;20197;-77
2023/12/30 19:32:46;;;;;;;8.27;5.33;;;;;2.60;96199.00;;;;8300640;28;20193;-77
2023/12/30 19:36:52;;;;;;;9.90;5.67;;;;;2.60;96200.00;;;;8299624;28;20662;-77
2023/12/30 19:40:56;;;;;;;14.50;6.50;;;;;2.60;96202.00;;;;8299774;28;20232;-76
2023/12/30 19:45:01;;;;;;;11.90;5.43;;;;;2.60;96196.00;;;;8300097;28;20328;-76
2023/12/30 19:49:05;;;;;;;12.73;6.23;;;;;2.50;96193.00;;;;8300302;28;20618;-75
2023/12/30 19:53:10;;;;;;;11.90;5.70;;;;;2.50;96187.00;;;;8299240;28;20286;-75
2023/12/30 19:57:13;;;;;;;13.80;5.70;;;;;2.50;96184.00;;;;8300354;28;20201;-75
2023/12/30 20:01:16;;;;;;;6.63;4.80;;;;;2.40;96191.00;;;;8300197;28;20265;-75
2023/12/30 20:05:20;;;;;;;5.17;3.80;;;;;2.40;96184.00;;;;8300089;28;20228;-74
2023/12/30 20:09:25;;;;;;;12.47;5.30;;;;;2.40;96176.00;;;;8298939;28;20200;-74
2023/12/30 20:13:28;;;;;;;12.33;5.63;;;;;2.40;96172.00;;;;8300019;28;20703;-74
2023/12/30 20:17:31;;;;;;;10.73;5.13;;;;;2.30;96166.00;;;;8299208;28;20265;-74
2023/12/30 20:21:34;;;;;;;14.37;5.50;;;;;2.30;96172.00;;;;8298801;28;20266;-73
2023/12/30 20:25:39;;;;;;;15.47;6.20;;;;;2.30;96173.00;;;;8298945;28;20245;-74
2023/12/30 20:29:43;;;;;;;12.50;6.57;;;;;2.40;96167.00;;;;8299724;28;20200;-73
2023/12/30 20:33:46;;;;;;;16.40;7.47;;;;;2.40;96157.00;;;;8299620;28;20200;-73
2023/12/30 20:37:50;;;;;;;13.43;6.90;;;;;2.30;96149.00;;;;8298313;28;20203;-73
2023/12/30 20:41:54;;;;;;;21.57;7.10;;;;;2.20;96168.00;;;;8299181;28;20637;-72